Time;durP1;ratioP1;P1;durP2;ratioP2;P2;SDS_P1;SDS_P2;PMS_P1;PMS_P2;Temp;Humidity;BMP_temperature;BMP_pressure;BME280_temperature;BME280_humidity;BME280_pressure;Samples;Min_cycle;Max_cycle;Signal;HPM_P1;HPM_P2
2022/06/24 00:01:14;;;;;;;7.97;6.03;;;;;;;20.30;100.00;99221.13;5070115;28;20219;-54
2022/06/24 00:03:43;;;;;;;5.55;5.05;;;;;;;20.29;100.00;99213.31;5069762;28;20569;-54
2022/06/24 00:06:14;;;;;;;5.65;5.03;;;;;;;20.25;100.00;99207.44;5069945;28;20202;-54
2022/06/24 00:08:50;;;;;;;5.10;4.78;;;;;;;20.19;100.00;99205.25;5070110;28;20207;-54
2022/06/24 00:11:17;;;;;;;5.75;5.35;;;;;;;20.31;100.00;99212.25;5069885;28;20232;-54
2022/06/24 00:13:44;;;;;;;7.22;5.50;;;;;;;20.32;100.00;99220.97;5069933;28;20684;-54
2022/06/24 00:16:11;;;;;;;5.63;5.15;;;;;;;20.37;100.00;99220.69;5068234;28;20637;-54
2022/06/24 00:18:38;;;;;;;6.03;5.32;;;;;;;20.26;100.00;99216.19;5068933;28;20291;-55
2022/06/24 00:21:13;;;;;;;6.03;5.53;;;;;;;20.20;100.00;99225.34;5069742;28;20196;-55
2022/06/24 00:23:41;;;;;;;5.78;5.28;;;;;;;20.20;100.00;99222.72;5069947;28;20675;-55
2022/06/24 00:26:09;;;;;;;5.88;5.38;;;;;;;20.20;100.00;99211.38;5069519;28;20208;-55
2022/06/24 00:28:36;;;;;;;6.38;5.30;;;;;;;20.15;100.00;99214.31;5069475;28;20203;-54
2022/06/24 00:31:04;;;;;;;5.60;5.15;;;;;;;19.96;100.00;99202.59;5069341;28;20230;-55
2022/06/24 00:33:36;;;;;;;5.70;5.30;;;;;;;19.93;100.00;99195.75;5069637;28;20590;-55
2022/06/24 00:36:06;;;;;;;5.63;5.18;;;;;;;19.99;100.00;99197.94;5069447;28;20192;-55
2022/06/24 00:38:34;;;;;;;5.07;4.60;;;;;;;20.02;100.00;99195.09;5069522;28;20293;-54
2022/06/24 00:41:03;;;;;;;5.85;5.40;;;;;;;19.92;100.00;99196.72;5069428;28;20366;-53
2022/06/24 00:43:35;;;;;;;5.30;4.80;;;;;;;19.83;100.00;99190.31;5069216;28;20298;-54
2022/06/24 00:46:09;;;;;;;5.53;5.07;;;;;;;19.84;100.00;99189.38;5069292;28;20231;-54
2022/06/24 00:48:38;;;;;;;5.50;5.10;;;;;;;19.83;100.00;99200.84;5069365;28;20260;-54
2022/06/24 00:51:06;;;;;;;6.25;5.63;;;;;;;19.83;100.00;99197.38;5069152;28;20316;-54
2022/06/24 00:53:41;;;;;;;6.35;5.47;;;;;;;19.68;100.00;99198.47;5069207;28;20227;-54
2022/06/24 00:56:11;;;;;;;7.70;5.07;;;;;;;19.60;100.00;99200.81;5069258;28;20202;-53
2022/06/24 00:58:40;;;;;;;6.07;5.68;;;;;;;19.68;100.00;99194.03;5069346;28;20196;-53
2022/06/24 01:01:07;;;;;;;6.43;5.25;;;;;;;19.69;100.00;99192.25;5069132;28;20199;-55
2022/06/24 01:03:40;;;;;;;5.55;5.15;;;;;;;19.58;100.00;99201.75;5068919;28;20286;-54
2022/06/24 01:06:07;;;;;;;5.93;5.57;;;;;;;19.51;100.00;99205.78;5069185;28;20215;-55
2022/06/24 01:08:35;;;;;;;5.95;5.43;;;;;;;19.44;100.00;99215.00;5069100;28;20291;-55
2022/06/24 01:11:02;;;;;;;5.85;5.28;;;;;;;19.36;100.00;99222.59;5069048;28;20196;-55
2022/06/24 01:13:30;;;;;;;6.00;5.45;;;;;;;19.35;100.00;99218.28;5069043;28;20200;-55
2022/06/24 01:15:58;;;;;;;6.13;5.60;;;;;;;19.44;100.00;99222.06;5069103;28;20240;-55
2022/06/24 01:18:25;;;;;;;5.72;5.32;;;;;;;19.54;100.00;99223.97;5068798;28;20200;-54
2022/06/24 01:20:52;;;;;;;6.30;5.80;;;;;;;19.48;100.00;99219.16;5069039;28;20192;-54
2022/06/24 01:23:27;;;;;;;5.38;5.07;;;;;;;19.46;100.00;99221.00;5069077;28;20203;-54
2022/06/24 01:25:54;;;;;;;6.63;6.05;;;;;;;19.49;100.00;99225.25;5069168;28;20199;-54
2022/06/24 01:28:21;;;;;;;5.82;5.20;;;;;;;19.44;100.00;99232.59;5068985;28;20196;-54
2022/06/24 01:30:48;;;;;;;5.40;5.03;;;;;;;19.46;100.00;99234.16;5071054;28;20655;-55
2022/06/24 01:33:14;;;;;;;6.55;6.05;;;;;;;19.46;100.00;99231.53;5072492;28;20314;-54
2022/06/24 01:35:41;;;;;;;6.57;5.30;;;;;;;19.48;100.00;99224.41;5072722;28;20296;-54
2022/06/24 01:38:08;;;;;;;6.47;5.50;;;;;;;19.45;100.00;99224.59;5072750;28;20691;-54
2022/06/24 01:40:37;;;;;;;7.30;5.38;;;;;;;19.34;100.00;99227.13;5072536;28;20291;-53
2022/06/24 01:43:04;;;;;;;9.82;5.72;;;;;;;19.24;100.00;99233.97;5072627;28;20246;-53
2022/06/24 01:45:31;;;;;;;8.02;5.25;;;;;;;19.14;100.00;99228.50;5072449;28;20231;-54
2022/06/24 01:47:58;;;;;;;6.18;5.78;;;;;;;19.09;100.00;99229.75;5072215;28;20203;-54
2022/06/24 01:50:25;;;;;;;7.22;5.60;;;;;;;19.03;100.00;99227.53;5072480;28;20647;-54
2022/06/24 01:52:52;;;;;;;8.18;5.90;;;;;;;19.06;100.00;99232.59;5072203;28;20226;-54
2022/06/24 01:55:19;;;;;;;6.93;5.40;;;;;;;19.06;100.00;99229.97;5072681;28;20196;-54
2022/06/24 01:57:47;;;;;;;7.07;5.97;;;;;;;19.06;100.00;99229.97;5072191;28;20196;-54
2022/06/24 02:00:15;;;;;;;8.70;5.43;;;;;;;19.07;100.00;99240.41;5072303;28;20223;-54
2022/06/24 02:02:42;;;;;;;10.13;5.65;;;;;;;19.16;100.00;99233.66;5072186;28;20215;-54
2022/06/24 02:05:11;;;;;;;6.15;5.72;;;;;;;19.17;100.00;99225.66;5072044;28;20503;-54
2022/06/24 02:07:37;;;;;;;6.28;5.65;;;;;;;19.14;100.00;99225.03;5072167;28;20192;-55
2022/06/24 02:15:35;;;;;;;8.20;5.47;;;;;;;18.90;100.00;99226.69;5071850;28;20622;-54
2022/06/24 02:18:02;;;;;;;8.65;5.65;;;;;;;18.73;100.00;99235.72;5072003;28;20654;-55
2022/06/24 02:20:29;;;;;;;5.57;5.18;;;;;;;18.55;100.00;99227.22;5071655;28;20218;-54
2022/06/24 02:22:56;;;;;;;6.72;5.75;;;;;;;18.54;100.00;99227.31;5071690;28;20202;-54
2022/06/24 02:25:23;;;;;;;7.30;6.70;;;;;;;18.54;100.00;99236.03;5071841;28;20200;-54
2022/06/24 02:27:51;;;;;;;9.80;6.93;;;;;;;18.60;100.00;99227.81;5071812;28;20200;-54
2022/06/24 02:30:18;;;;;;;8.00;7.30;;;;;;;18.65;100.00;99233.56;5071540;28;20202;-55
2022/06/24 02:32:45;;;;;;;11.00;8.50;;;;;;;18.74;100.00;99222.44;5071778;28;20234;-55
2022/06/24 02:35:12;;;;;;;10.82;8.30;;;;;;;18.83;100.00;99213.97;5071551;28;20196;-55
2022/06/24 02:37:39;;;;;;;11.38;8.90;;;;;;;18.88;100.00;99207.53;5071804;28;20278;-55
2022/06/24 02:42:48;;;;;;;11.52;9.48;;;;;;;18.95;100.00;99214.09;5069811;28;20227;-55
2022/06/24 02:45:16;;;;;;;13.80;9.48;;;;;;;18.78;100.00;99210.78;5071262;28;20215;-55
2022/06/24 02:47:43;;;;;;;11.30;9.02;;;;;;;18.71;100.00;99224.47;5071010;28;20206;-55
2022/06/24 02:50:10;;;;;;;9.95;8.98;;;;;;;18.60;100.00;99219.91;5069755;28;20287;-55
2022/06/24 02:52:37;;;;;;;10.10;8.50;;;;;;;18.62;100.00;99228.53;5069666;28;20261;-55
2022/06/24 02:55:04;;;;;;;9.52;8.73;;;;;;;18.61;100.00;99211.09;5067236;28;20199;-52
2022/06/24 02:57:31;;;;;;;10.00;8.90;;;;;;;18.68;100.00;99237.81;5069694;28;20191;-53
2022/06/24 02:59:58;;;;;;;10.90;8.90;;;;;;;18.68;100.00;99241.28;5070094;28;20232;-54
2022/06/24 03:02:26;;;;;;;11.07;9.95;;;;;;;18.70;100.00;99235.91;5069640;28;20200;-56
2022/06/24 03:04:54;;;;;;;10.18;9.20;;;;;;;18.66;100.00;99222.13;5065398;28;20206;-55
2022/06/24 03:07:21;;;;;;;10.30;9.25;;;;;;;18.67;100.00;99221.19;5067551;28;20283;-54
2022/06/24 03:09:48;;;;;;;11.30;9.25;;;;;;;18.63;100.00;99229.38;5069400;28;20196;-54
2022/06/24 03:12:15;;;;;;;10.77;9.40;;;;;;;18.63;100.00;99229.38;5072211;28;20232;-55
2022/06/24 03:14:42;;;;;;;11.40;8.60;;;;;;;18.68;100.00;99229.91;5068948;28;20238;-55
2022/06/24 03:17:09;;;;;;;11.05;8.88;;;;;;;18.72;100.00;99234.88;5069070;28;20558;-55
2022/06/24 03:19:37;;;;;;;9.27;8.35;;;;;;;18.78;100.00;99230.97;5068862;28;20196;-54
2022/06/24 03:22:05;;;;;;;12.50;8.52;;;;;;;18.78;100.00;99236.25;5069220;28;20224;-55
2022/06/24 03:24:31;;;;;;;10.20;9.20;;;;;;;18.85;100.00;99233.09;5069043;28;20194;-54
2022/06/24 03:26:58;;;;;;;10.20;9.00;;;;;;;18.86;100.00;99241.81;5069310;28;20282;-54
2022/06/24 03:29:25;;;;;;;10.77;8.80;;;;;;;18.92;100.00;99232.69;5068989;28;20200;-55
2022/06/24 03:31:52;;;;;;;12.27;8.88;;;;;;;18.99;100.00;99236.56;5067980;28;20274;-55
2022/06/24 03:34:19;;;;;;;11.27;8.30;;;;;;;19.10;100.00;99239.31;5065377;28;20192;-55
2022/06/24 03:36:48;;;;;;;9.88;8.40;;;;;;;19.08;100.00;99243.84;5067749;28;20937;-53
2022/06/24 03:39:15;;;;;;;9.70;8.73;;;;;;;19.11;100.00;99248.91;5067848;28;20592;-53
2022/06/24 03:41:42;;;;;;;10.50;9.15;;;;;;;19.03;100.00;99241.53;5067627;28;20196;-55
2022/06/24 03:44:09;;;;;;;11.00;8.95;;;;;;;19.00;100.00;99240.91;5067480;28;20615;-54
2022/06/24 03:46:35;;;;;;;12.95;9.63;;;;;;;19.03;100.00;99246.81;5067289;28;20729;-54
2022/06/24 03:49:02;;;;;;;10.68;9.52;;;;;;;18.94;100.00;99246.59;5067625;28;20208;-54
2022/06/24 03:51:29;;;;;;;13.47;9.23;;;;;;;18.97;100.00;99238.47;5068438;28;20743;-54
2022/06/24 03:53:58;;;;;;;9.90;8.85;;;;;;;19.04;100.00;99242.38;5066774;28;20309;-55
2022/06/24 03:56:24;;;;;;;11.93;9.75;;;;;;;19.16;100.00;99241.56;5067565;28;20305;-54
2022/06/24 03:58:52;;;;;;;10.93;9.77;;;;;;;19.35;100.00;99239.34;5067609;28;20218;-54
2022/06/24 04:01:18;;;;;;;11.63;8.60;;;;;;;19.61;100.00;99239.34;5067456;28;20199;-54
2022/06/24 04:03:46;;;;;;;11.57;9.20;;;;;;;19.77;100.00;99237.31;5066308;28;20196;-55
2022/06/24 04:06:12;;;;;;;11.25;7.65;;;;;;;19.83;100.00;99236.88;5064827;28;20636;-54
2022/06/24 04:08:39;;;;;;;11.82;8.73;;;;;;;20.04;100.00;99231.88;5064494;28;20196;-55
2022/06/24 04:11:11;;;;;;;15.15;11.88;;;;;;;20.39;100.00;99230.19;5065323;28;20306;-58
2022/06/24 04:13:38;;;;;;;15.85;9.50;;;;;;;20.62;100.00;99242.50;5065918;28;20702;-58
2022/06/24 04:16:06;;;;;;;12.73;11.50;;;;;;;20.70;100.00;99238.44;5065847;28;20334;-55
2022/06/24 04:18:33;;;;;;;11.98;8.68;;;;;;;20.81;100.00;99241.13;5064904;28;20284;-56
2022/06/24 04:21:01;;;;;;;11.90;8.80;;;;;;;20.91;100.00;99231.53;5066785;28;20288;-54
2022/06/24 04:23:28;;;;;;;18.90;15.65;;;;;;;20.93;100.00;99227.00;5075136;28;20234;-55
2022/06/24 04:25:55;;;;;;;10.73;9.57;;;;;;;20.81;100.00;99223.50;5067846;28;20668;-55
2022/06/24 04:28:23;;;;;;;12.65;10.82;;;;;;;20.83;100.00;99228.66;5067675;28;20228;-55
2022/06/24 04:30:50;;;;;;;9.50;8.57;;;;;;;20.88;100.00;99219.44;5066037;28;20758;-55
2022/06/24 04:33:17;;;;;;;10.23;8.13;;;;;;;21.11;100.00;99225.59;5066068;28;20224;-53
2022/06/24 04:35:44;;;;;;;12.50;8.77;;;;;;;21.54;100.00;99228.44;5066037;28;20234;-54
2022/06/24 04:38:11;;;;;;;15.05;9.50;;;;;;;21.97;100.00;99225.03;5066326;28;20619;-54
2022/06/24 04:40:38;;;;;;;11.60;10.10;;;;;;;22.51;100.00;99226.81;5064292;28;20224;-54
2022/06/24 04:43:05;;;;;;;16.20;9.82;;;;;;;23.44;98.55;99228.59;5065220;28;20227;-54
2022/06/24 04:45:34;;;;;;;9.60;8.70;;;;;;;25.07;90.58;99231.66;5065777;28;20306;-54
2022/06/24 04:48:01;;;;;;;11.75;9.23;;;;;;;26.68;81.69;99245.31;5064529;28;20227;-54
2022/06/24 04:50:28;;;;;;;10.98;9.88;;;;;;;27.40;77.97;99241.56;5066513;28;20227;-55
2022/06/24 04:52:55;;;;;;;11.73;10.13;;;;;;;28.55;73.21;99233.84;5066309;28;20232;-55
2022/06/24 04:55:22;;;;;;;15.05;10.38;;;;;;;30.03;68.07;99244.13;5066216;28;20216;-55
2022/06/24 04:57:49;;;;;;;17.63;9.88;;;;;;;31.72;62.51;99243.78;5066403;28;20230;-55
2022/06/24 05:00:17;;;;;;;12.82;9.82;;;;;;;33.21;56.71;99251.19;5067852;28;20231;-55
2022/06/24 05:02:45;;;;;;;12.55;9.52;;;;;;;34.17;52.93;99251.16;5068097;28;20247;-57
2022/06/24 05:05:13;;;;;;;14.52;10.55;;;;;;;34.96;50.05;99253.22;5069399;28;20220;-56
2022/06/24 05:07:41;;;;;;;10.88;9.57;;;;;;;35.09;49.04;99261.31;5071857;28;20234;-56
2022/06/24 05:10:08;;;;;;;9.65;8.60;;;;;;;35.72;46.62;99253.56;5078543;28;20199;-54
2022/06/24 05:12:35;;;;;;;9.13;7.93;;;;;;;35.82;45.86;99262.06;5093279;28;20265;-54
2022/06/24 05:15:03;;;;;;;14.25;8.45;;;;;;;36.51;44.63;99271.34;5093061;28;20244;-54
2022/06/24 05:17:29;;;;;;;13.30;8.30;;;;;;;36.60;43.25;99276.25;5092923;28;20205;-54
2022/06/24 05:19:58;;;;;;;9.15;7.32;;;;;;;36.77;43.16;99275.78;5093509;28;20286;-55
2022/06/24 05:22:25;;;;;;;11.15;6.38;;;;;;;36.68;42.59;99280.59;5093211;28;20195;-55
2022/06/24 05:24:52;;;;;;;9.45;6.90;;;;;;;37.20;41.86;99282.13;5093000;28;20758;-54
2022/06/24 05:27:19;;;;;;;10.25;7.00;;;;;;;37.94;39.47;99292.00;5092465;28;20197;-55
2022/06/24 05:29:46;;;;;;;10.93;7.03;;;;;;;38.30;38.33;99293.88;5092666;28;20202;-54
2022/06/24 05:32:13;;;;;;;11.63;5.90;;;;;;;38.22;37.13;99304.22;5093079;28;20372;-56
2022/06/24 05:34:40;;;;;;;6.55;5.95;;;;;;;38.47;36.70;99302.22;5092707;28;20204;-56
2022/06/24 05:37:08;;;;;;;7.88;5.68;;;;;;;37.70;37.60;99298.34;5088348;28;20210;-58
2022/06/24 05:39:35;;;;;;;6.18;5.68;;;;;;;37.47;38.64;99292.72;5071170;28;20200;-58
2022/06/24 05:42:02;;;;;;;12.32;5.70;;;;;;;37.29;39.04;99282.66;5071707;28;20195;-58
2022/06/24 05:44:29;;;;;;;11.88;5.50;;;;;;;37.43;38.49;99295.84;5071401;28;20282;-59
2022/06/24 05:46:56;;;;;;;6.15;5.13;;;;;;;37.85;37.64;99301.47;5071641;28;20267;-59
2022/06/24 05:49:22;;;;;;;11.13;5.53;;;;;;;38.62;36.39;99299.91;5071791;28;20206;-66
2022/06/24 05:51:49;;;;;;;8.90;5.40;;;;;;;39.13;35.31;99287.69;5053358;28;20200;-59
2022/06/24 05:57:02;;;;;;;10.07;5.78;;;;;;;39.55;34.34;99286.53;5052324;28;20206;-60
2022/06/24 05:59:29;;;;;;;10.85;5.50;;;;;;;40.13;33.62;99290.22;5052041;28;20204;-59
2022/06/24 06:01:56;;;;;;;12.82;5.60;;;;;;;40.07;34.01;99297.44;5052192;28;20243;-59
2022/06/24 06:04:23;;;;;;;6.63;4.32;;;;;;;39.69;33.51;99294.44;5051902;28;20198;-59
2022/06/24 06:06:52;;;;;;;5.10;4.65;;;;;;;38.80;35.59;99283.59;5052176;28;20225;-59
2022/06/24 06:09:20;;;;;;;8.32;4.18;;;;;;;37.50;37.44;99284.13;5051883;28;20196;-59
2022/06/24 06:11:47;;;;;;;7.18;4.57;;;;;;;37.65;38.08;99285.47;5052966;28;20690;-66
2022/06/24 06:14:14;;;;;;;4.60;4.13;;;;;;;37.21;38.24;99283.78;5059412;28;20219;-65
2022/06/24 06:16:41;;;;;;;8.30;4.45;;;;;;;37.29;38.69;99288.91;5069696;28;20195;-66
2022/06/24 06:19:08;;;;;;;5.63;4.10;;;;;;;37.35;38.87;99292.63;5070838;28;20723;-58
2022/06/24 06:21:35;;;;;;;5.45;3.90;;;;;;;36.71;39.94;99288.28;5070095;28;20596;-58
2022/06/24 06:24:02;;;;;;;4.97;4.45;;;;;;;36.49;39.70;99293.19;5070010;28;20568;-58
2022/06/24 06:26:31;;;;;;;4.20;3.90;;;;;;;35.77;40.84;99275.41;5069842;28;20222;-60
2022/06/24 06:28:58;;;;;;;13.13;4.57;;;;;;;34.90;42.85;99279.16;5069993;28;20329;-59
2022/06/24 06:31:25;;;;;;;4.88;4.40;;;;;;;34.50;44.41;99289.00;5071269;28;20204;-58
2022/06/24 06:33:51;;;;;;;4.95;4.28;;;;;;;34.66;44.31;99295.03;5071604;28;20672;-59
2022/06/24 06:36:18;;;;;;;5.00;4.20;;;;;;;34.93;44.13;99299.47;5071256;28;20206;-60
2022/06/24 06:38:46;;;;;;;7.30;4.40;;;;;;;35.10;43.89;99300.75;5071612;28;20199;-66
2022/06/24 06:41:13;;;;;;;4.93;4.20;;;;;;;34.54;44.15;99302.91;5071387;28;20211;-66
2022/06/24 06:43:41;;;;;;;4.70;4.30;;;;;;;34.46;45.32;99295.84;5071448;28;20589;-65
2022/06/24 06:46:10;;;;;;;5.70;4.43;;;;;;;33.95;46.42;99295.41;5070611;28;20234;-66
2022/06/24 06:48:37;;;;;;;4.63;4.25;;;;;;;33.11;48.21;99298.09;5070811;28;20203;-66
2022/06/24 06:51:04;;;;;;;5.60;4.75;;;;;;;33.15;48.01;99304.75;5070068;28;20203;-66
2022/06/24 06:53:31;;;;;;;9.27;5.65;;;;;;;33.11;49.37;99298.09;5070567;28;20226;-67
2022/06/24 06:55:58;;;;;;;6.50;4.75;;;;;;;33.57;48.63;99297.63;5071163;28;20199;-58
2022/06/24 06:58:25;;;;;;;6.72;5.47;;;;;;;33.44;48.73;99295.69;5070914;28;20245;-58
2022/06/24 07:00:53;;;;;;;6.28;4.13;;;;;;;33.41;47.70;99285.31;5070918;28;20283;-59
2022/06/24 07:03:20;;;;;;;5.50;4.55;;;;;;;33.45;48.39;99272.28;5070914;28;20273;-58
2022/06/24 07:05:48;;;;;;;6.25;5.22;;;;;;;33.79;48.40;99290.34;5071058;28;20278;-65
2022/06/24 07:08:16;;;;;;;5.47;5.07;;;;;;;34.11;47.63;99286.97;5070791;28;20287;-64
2022/06/24 07:10:44;;;;;;;8.00;4.88;;;;;;;33.55;48.79;99286.22;5070891;28;20191;-65
2022/06/24 07:13:11;;;;;;;7.35;5.38;;;;;;;33.13;50.48;99284.44;5070777;28;20310;-65
2022/06/24 07:15:38;;;;;;;6.93;5.57;;;;;;;33.46;49.19;99290.13;5070693;28;20745;-65
2022/06/24 07:18:07;;;;;;;5.63;4.88;;;;;;;33.10;49.66;99282.16;5070847;28;20578;-66
2022/06/24 07:20:34;;;;;;;7.57;5.78;;;;;;;32.97;49.69;99273.97;5070964;28;20676;-66
2022/06/24 07:23:01;;;;;;;10.77;4.55;;;;;;;33.27;50.41;99274.66;5070728;28;20202;-66
2022/06/24 07:25:28;;;;;;;5.43;4.38;;;;;;;33.80;48.39;99276.69;5070528;28;20204;-58
2022/06/24 07:27:55;;;;;;;8.57;4.53;;;;;;;34.52;49.92;99273.47;5070299;28;20636;-57
2022/06/24 07:30:22;;;;;;;4.80;4.32;;;;;;;34.53;47.61;99269.75;5070352;28;20206;-58
2022/06/24 07:32:49;;;;;;;4.85;4.55;;;;;;;34.72;45.39;99270.81;5070389;28;20303;-59
2022/06/24 07:35:17;;;;;;;6.55;4.40;;;;;;;34.85;45.14;99270.84;5070352;28;20290;-67
2022/06/24 07:37:44;;;;;;;5.60;4.93;;;;;;;34.93;45.56;99254.47;5070212;28;20200;-68
2022/06/24 07:40:12;;;;;;;7.68;5.97;;;;;;;34.81;45.79;99258.81;5070073;28;20202;-68
2022/06/24 07:42:39;;;;;;;7.72;5.50;;;;;;;34.62;45.33;99256.91;5070324;28;20210;-67
2022/06/24 07:45:06;;;;;;;6.10;5.60;;;;;;;34.53;46.85;99252.75;5069430;28;20188;-68
2022/06/24 07:47:34;;;;;;;10.55;5.15;;;;;;;34.60;46.10;99248.19;5069796;28;20286;-67
2022/06/24 07:50:02;;;;;;;5.40;4.90;;;;;;;35.04;45.26;99253.00;5070732;28;20196;-58
2022/06/24 07:52:30;;;;;;;7.60;4.80;;;;;;;34.71;46.25;99246.75;5070095;28;20590;-59
2022/06/24 07:57:38;;;;;;;7.07;4.50;;;;;;;34.89;45.27;99244.28;5067549;28;20207;-57
2022/06/24 08:00:06;;;;;;;6.47;4.85;;;;;;;34.67;44.93;99229.31;5086437;28;20709;-59
2022/06/24 08:02:33;;;;;;;5.78;5.03;;;;;;;34.21;45.84;99230.00;5075594;28;20668;-60
2022/06/24 08:05:00;;;;;;;11.13;4.47;;;;;;;34.62;45.02;99234.50;5069942;28;20191;-65
2022/06/24 08:07:27;;;;;;;8.23;4.28;;;;;;;35.15;44.47;99232.66;5069680;28;20200;-66
2022/06/24 08:09:55;;;;;;;7.90;4.80;;;;;;;35.43;42.94;99235.16;5069964;28;20668;-59
2022/06/24 08:12:22;;;;;;;5.85;4.32;;;;;;;36.07;40.40;99237.03;5069769;28;20200;-59
2022/06/24 08:14:49;;;;;;;6.40;4.18;;;;;;;36.47;41.09;99221.44;5069492;28;20342;-66
2022/06/24 08:17:16;;;;;;;4.95;4.53;;;;;;;36.78;39.07;99239.56;5069603;28;20282;-66
2022/06/24 08:19:44;;;;;;;6.03;5.40;;;;;;;36.29;38.20;99251.91;5070018;28;20202;-66
2022/06/24 08:22:11;;;;;;;4.22;3.90;;;;;;;36.35;39.35;99256.44;5069689;28;20207;-59
2022/06/24 08:24:38;;;;;;;5.90;3.75;;;;;;;36.61;39.08;99252.75;5069655;28;20591;-67
2022/06/24 08:27:06;;;;;;;4.40;4.10;;;;;;;36.79;38.25;99246.63;5069685;28;20203;-66
2022/06/24 08:29:33;;;;;;;5.68;3.78;;;;;;;37.30;37.38;99260.78;5069945;28;20723;-66
2022/06/24 08:32:00;;;;;;;9.13;4.38;;;;;;;37.32;37.30;99252.44;5069868;28;20706;-66
2022/06/24 08:34:27;;;;;;;5.30;4.68;;;;;;;37.62;37.45;99247.97;5069657;28;20785;-66
2022/06/24 08:36:54;;;;;;;5.47;4.63;;;;;;;37.57;36.48;99239.69;5069860;28;20203;-58
2022/06/24 08:39:21;;;;;;;4.85;4.40;;;;;;;37.41;36.88;99238.38;5069159;28;20205;-58
2022/06/24 08:41:52;;;;;;;7.35;4.20;;;;;;;36.72;37.51;99238.56;5069253;28;20204;-58
2022/06/24 08:44:21;;;;;;;5.97;4.07;;;;;;;36.13;39.77;99241.56;5069380;28;20206;-58
2022/06/24 08:46:49;;;;;;;5.85;4.38;;;;;;;35.97;40.55;99238.31;5069247;28;20195;-67
2022/06/24 08:49:16;;;;;;;7.38;4.00;;;;;;;35.66;40.50;99239.03;5069068;28;20200;-67
2022/06/24 08:51:46;;;;;;;4.80;4.38;;;;;;;35.43;40.29;99229.75;5069264;28;20192;-59
2022/06/24 08:54:15;;;;;;;6.90;4.35;;;;;;;35.20;40.07;99231.00;5069200;28;20226;-59
2022/06/24 08:56:42;;;;;;;5.95;5.45;;;;;;;35.11;40.26;99236.81;5069189;28;20203;-58
2022/06/24 08:59:09;;;;;;;5.18;4.03;;;;;;;34.98;39.49;99226.88;5069235;28;20235;-58
2022/06/24 09:01:41;;;;;;;5.00;4.03;;;;;;;34.68;38.66;99229.09;5069251;28;20195;-59
2022/06/24 09:04:09;;;;;;;6.32;4.18;;;;;;;34.28;39.19;99225.53;5069306;28;20207;-63
2022/06/24 09:06:39;;;;;;;4.13;3.83;;;;;;;34.03;40.75;99221.69;5069391;28;20207;-63
2022/06/24 09:09:06;;;;;;;5.57;5.00;;;;;;;33.93;43.17;99219.38;5069258;28;20196;-63
2022/06/24 09:11:38;;;;;;;4.18;3.83;;;;;;;33.98;41.52;99221.44;5069026;28;20292;-64
2022/06/24 09:14:05;;;;;;;4.65;4.07;;;;;;;33.98;39.20;99229.53;5069176;28;20234;-64
2022/06/24 09:16:33;;;;;;;6.20;3.55;;;;;;;33.81;38.60;99229.88;5066294;28;20228;-57
2022/06/24 09:19:03;;;;;;;4.00;3.70;;;;;;;33.83;38.66;99221.63;5067172;28;20250;-58
2022/06/24 09:21:32;;;;;;;8.20;3.95;;;;;;;33.58;38.68;99220.41;5064640;28;20670;-57
2022/06/24 09:24:02;;;;;;;3.95;3.67;;;;;;;33.67;40.43;99217.34;5066143;28;20352;-57
2022/06/24 09:26:31;;;;;;;5.45;3.95;;;;;;;33.21;42.03;99205.47;5065261;28;20196;-58
2022/06/24 09:28:59;;;;;;;5.35;4.43;;;;;;;33.09;42.67;99206.00;5065166;28;20204;-57
2022/06/24 09:31:26;;;;;;;7.20;4.50;;;;;;;33.25;41.08;99214.84;5066213;28;20192;-57
2022/06/24 09:33:54;;;;;;;5.32;3.58;;;;;;;33.55;37.85;99216.25;5066500;28;20556;-57
2022/06/24 09:36:26;;;;;;;4.32;3.67;;;;;;;33.77;38.42;99217.00;5066429;28;20909;-57
2022/06/24 09:38:55;;;;;;;7.30;3.72;;;;;;;34.11;38.63;99214.25;5066294;28;20192;-57
2022/06/24 09:41:22;;;;;;;5.30;3.35;;;;;;;34.25;37.57;99217.81;5067363;28;20203;-57
2022/06/24 09:43:50;;;;;;;5.03;3.90;;;;;;;34.03;38.02;99213.59;5065231;28;20545;-58
2022/06/24 09:46:19;;;;;;;4.38;4.00;;;;;;;33.97;38.32;99209.88;5066427;28;20192;-58
2022/06/24 09:48:46;;;;;;;3.55;3.28;;;;;;;33.96;38.92;99197.44;5066430;28;20210;-57
2022/06/24 09:51:14;;;;;;;5.60;4.07;;;;;;;33.70;38.27;99208.06;5066299;28;20192;-57
2022/06/24 09:53:43;;;;;;;5.35;4.10;;;;;;;33.46;37.50;99204.00;5069108;28;20207;-57
2022/06/24 09:56:11;;;;;;;3.33;3.10;;;;;;;33.59;35.98;99204.06;5069117;28;20363;-57
2022/06/24 09:58:40;;;;;;;4.07;2.80;;;;;;;33.64;34.93;99196.22;5069875;28;20664;-57
2022/06/24 10:01:06;;;;;;;3.13;3.03;;;;;;;33.65;34.02;99207.81;5069828;28;20250;-58
2022/06/24 10:03:35;;;;;;;3.78;3.47;;;;;;;34.07;34.75;99202.22;5067804;28;20192;-57
2022/06/24 10:06:03;;;;;;;3.60;3.20;;;;;;;34.15;34.66;99202.03;5069444;28;20203;-58
2022/06/24 10:08:34;;;;;;;6.45;3.80;;;;;;;34.05;33.79;99208.84;5069206;28;20203;-58
2022/06/24 10:11:07;;;;;;;4.25;3.95;;;;;;;34.11;33.62;99210.72;5069698;28;20578;-59
2022/06/24 10:13:34;;;;;;;7.50;4.28;;;;;;;33.83;33.74;99200.06;5067790;28;20203;-57
2022/06/24 10:16:03;;;;;;;4.00;3.70;;;;;;;33.36;32.94;99206.22;5069258;28;20227;-57
2022/06/24 10:18:34;;;;;;;4.63;3.53;;;;;;;32.92;33.62;99196.59;5068950;28;20191;-58
2022/06/24 10:21:03;;;;;;;5.45;4.97;;;;;;;32.91;34.55;99202.97;5069555;28;20235;-58
2022/06/24 10:23:38;;;;;;;4.53;3.83;;;;;;;32.77;33.59;99195.84;5068934;28;20198;-58
2022/06/24 10:26:14;;;;;;;4.25;2.90;;;;;;;32.52;33.26;99197.22;5069151;28;20192;-56
2022/06/24 10:29:17;;;;;;;3.08;2.63;;;;;;;32.54;33.45;99197.88;5068255;28;20187;-58
2022/06/24 10:32:01;;;;;;;2.95;2.75;;;;;;;32.58;33.71;99199.16;4987348;28;20608;-64
2022/06/24 10:34:32;;;;;;;5.00;2.75;;;;;;;32.70;32.87;99201.13;4987327;28;20226;-64
2022/06/24 10:37:02;;;;;;;4.80;3.80;;;;;;;32.52;32.72;99194.53;5035601;28;20243;-64
2022/06/24 10:39:30;;;;;;;4.38;4.07;;;;;;;32.25;33.48;99190.78;5068276;28;20210;-64
2022/06/24 10:42:02;;;;;;;2.90;2.65;;;;;;;32.03;33.89;99200.63;5068976;28;20700;-63
2022/06/24 10:44:30;;;;;;;4.05;3.72;;;;;;;31.69;34.07;99185.16;5068349;28;20196;-63
2022/06/24 10:47:26;;;;;;;3.67;3.47;;;;;;;31.78;34.93;99191.25;5068860;28;20723;-64
2022/06/24 10:50:07;;;;;;;7.15;6.45;;;;;;;31.80;36.23;99183.84;5059506;28;20192;-64
2022/06/24 10:52:36;;;;;;;4.50;3.88;;;;;;;31.78;34.51;99180.50;5067311;28;20309;-64
2022/06/24 10:55:30;;;;;;;3.45;3.15;;;;;;;31.81;35.33;99190.88;5069636;28;20222;-63
2022/06/24 10:58:00;;;;;;;3.80;3.60;;;;;;;31.88;35.11;99187.25;5068181;28;20202;-64
2022/06/24 11:00:30;;;;;;;4.43;4.13;;;;;;;32.03;36.92;99181.84;5069423;28;20283;-57
2022/06/24 11:03:12;;;;;;;4.53;4.22;;;;;;;32.21;36.78;99190.31;5068732;28;20210;-57
2022/06/24 11:05:41;;;;;;;7.72;3.95;;;;;;;32.14;36.27;99189.41;5067356;28;20646;-57
2022/06/24 11:08:12;;;;;;;4.05;3.28;;;;;;;32.16;37.46;99198.09;5066033;28;20200;-57
2022/06/24 11:10:39;;;;;;;3.95;3.58;;;;;;;32.17;34.87;99197.06;5068824;28;20214;-58
2022/06/24 11:13:10;;;;;;;3.30;3.00;;;;;;;32.03;34.17;99197.94;5068322;28;20207;-57
2022/06/24 11:15:38;;;;;;;3.33;3.13;;;;;;;31.93;34.80;99192.88;5068591;28;20316;-57
2022/06/24 11:18:07;;;;;;;3.28;2.92;;;;;;;31.85;35.55;99197.50;5069527;28;20196;-58
2022/06/24 11:20:37;;;;;;;5.18;3.45;;;;;;;31.94;36.30;99199.88;5069563;28;20196;-57
2022/06/24 11:23:07;;;;;;;3.70;3.40;;;;;;;32.06;37.26;99195.69;5069329;28;20196;-57
2022/06/24 11:25:35;;;;;;;3.88;3.67;;;;;;;31.99;36.73;99184.06;5069536;28;20192;-57
2022/06/24 11:28:02;;;;;;;4.28;4.03;;;;;;;32.14;36.72;99200.13;5069076;28;20196;-58
2022/06/24 11:30:30;;;;;;;3.83;3.53;;;;;;;32.20;36.25;99193.19;5066646;28;20638;-57
2022/06/24 11:32:59;;;;;;;4.95;3.10;;;;;;;32.25;36.47;99201.53;5069024;28;20200;-56
2022/06/24 11:35:27;;;;;;;6.50;3.22;;;;;;;32.26;37.57;99195.97;5068884;28;20219;-56
2022/06/24 11:37:56;;;;;;;3.83;3.53;;;;;;;32.21;35.57;99198.38;5069011;28;20587;-57
2022/06/24 11:40:24;;;;;;;6.55;3.40;;;;;;;32.16;35.05;99200.78;5068780;28;20273;-58
2022/06/24 11:42:52;;;;;;;4.10;3.65;;;;;;;31.99;35.98;99186.75;5066549;28;20200;-56
2022/06/24 11:45:33;;;;;;;5.72;3.50;;;;;;;32.04;36.02;99195.06;5068730;28;20625;-56